sensor_id;sensor_type;location;lat;lon;timestamp;P1;P2;P0
31163;PMS5003;17796;49.296;-117.656;2023-02-28T00:04:06;8;8;
31163;PMS5003;17796;49.296;-117.656;2023-02-28T00:19:10;10;10;
31163;PMS5003;17796;49.296;-117.656;2023-02-28T00:34:14;10;7;
31163;PMS5003;17796;49.296;-117.656;2023-02-28T00:49:18;8;7;
31163;PMS5003;17796;49.296;-117.656;2023-02-28T01:04:21;9;9;
31163;PMS5003;17796;49.296;-117.656;2023-02-28T01:19:26;11;7;
31163;PMS5003;17796;49.296;-117.656;2023-02-28T01:34:30;8;8;
31163;PMS5003;17796;49.296;-117.656;2023-02-28T01:49:34;13;11;
31163;PMS5003;17796;49.296;-117.656;2023-02-28T02:04:40;11;10;
31163;PMS5003;17796;49.296;-117.656;2023-02-28T02:20:44;17;8;
31163;PMS5003;17796;49.296;-117.656;2023-02-28T02:35:59;14;14;
31163;PMS5003;17796;49.296;-117.656;2023-02-28T02:51:07;14;13;
31163;PMS5003;17796;49.296;-117.656;2023-02-28T03:06:11;18;12;
31163;PMS5003;17796;49.296;-117.656;2023-02-28T03:21:19;18;15;
31163;PMS5003;17796;49.296;-117.656;2023-02-28T03:36:28;16;13;
31163;PMS5003;17796;49.296;-117.656;2023-02-28T03:51:33;24;17;
31163;PMS5003;17796;49.296;-117.656;2023-02-28T04:06:39;18;15;
31163;PMS5003;17796;49.296;-117.656;2023-02-28T04:21:45;19;12;
31163;PMS5003;17796;49.296;-117.656;2023-02-28T04:36:49;14;9;
31163;PMS5003;17796;49.296;-117.656;2023-02-28T04:51:53;16;12;
31163;PMS5003;17796;49.296;-117.656;2023-02-28T05:06:57;13;9;
31163;PMS5003;17796;49.296;-117.656;2023-02-28T05:22:00;13;10;
31163;PMS5003;17796;49.296;-117.656;2023-02-28T05:37:04;14;13;
31163;PMS5003;17796;49.296;-117.656;2023-02-28T05:52:08;13;10;
31163;PMS5003;17796;49.296;-117.656;2023-02-28T06:07:13;10;9;
31163;PMS5003;17796;49.296;-117.656;2023-02-28T06:22:16;14;13;
31163;PMS5003;17796;49.296;-117.656;2023-02-28T06:37:19;12;11;
31163;PMS5003;17796;49.296;-117.656;2023-02-28T06:52:23;16;13;
31163;PMS5003;17796;49.296;-117.656;2023-02-28T07:07:27;11;11;
31163;PMS5003;17796;49.296;-117.656;2023-02-28T07:22:30;4;4;
31163;PMS5003;17796;49.296;-117.656;2023-02-28T07:37:34;7;5;
31163;PMS5003;17796;49.296;-117.656;2023-02-28T07:52:38;8;6;
31163;PMS5003;17796;49.296;-117.656;2023-02-28T08:07:42;12;8;
31163;PMS5003;17796;49.296;-117.656;2023-02-28T08:22:46;12;7;
31163;PMS5003;17796;49.296;-117.656;2023-02-28T08:37:51;6;6;
31163;PMS5003;17796;49.296;-117.656;2023-02-28T08:52:54;9;6;
31163;PMS5003;17796;49.296;-117.656;2023-02-28T09:07:58;10;8;
31163;PMS5003;17796;49.296;-117.656;2023-02-28T09:23:01;13;10;
31163;PMS5003;17796;49.296;-117.656;2023-02-28T09:38:05;3;3;
31163;PMS5003;17796;49.296;-117.656;2023-02-28T09:53:21;5;5;
31163;PMS5003;17796;49.296;-117.656;2023-02-28T10:08:30;6;6;
31163;PMS5003;17796;49.296;-117.656;2023-02-28T10:23:36;10;7;
31163;PMS5003;17796;49.296;-117.656;2023-02-28T10:38:42;6;5;
31163;PMS5003;17796;49.296;-117.656;2023-02-28T10:53:49;3;3;
31163;PMS5003;17796;49.296;-117.656;2023-02-28T11:08:55;5;3;
31163;PMS5003;17796;49.296;-117.656;2023-02-28T11:24:03;2;2;
31163;PMS5003;17796;49.296;-117.656;2023-02-28T11:39:13;3;3;
31163;PMS5003;17796;49.296;-117.656;2023-02-28T11:54:31;4;4;
31163;PMS5003;17796;49.296;-117.656;2023-02-28T12:09:49;7;5;
31163;PMS5003;17796;49.296;-117.656;2023-02-28T12:25:48;7;5;
31163;PMS5003;17796;49.296;-117.656;2023-02-28T12:40:56;3;3;
31163;PMS5003;17796;49.296;-117.656;2023-02-28T12:56:12;17;14;
31163;PMS5003;17796;49.296;-117.656;2023-02-28T13:11:29;10;6;
31163;PMS5003;17796;49.296;-117.656;2023-02-28T13:27:59;11;7;
31163;PMS5003;17796;49.296;-117.656;2023-02-28T13:43:07;15;12;
31163;PMS5003;17796;49.296;-117.656;2023-02-28T13:58:33;6;6;
31163;PMS5003;17796;49.296;-117.656;2023-02-28T14:13:42;10;9;
31163;PMS5003;17796;49.296;-117.656;2023-02-28T14:28:59;18;17;
31163;PMS5003;17796;49.296;-117.656;2023-02-28T14:44:15;15;10;
31163;PMS5003;17796;49.296;-117.656;2023-02-28T14:59:26;18;11;
31163;PMS5003;17796;49.296;-117.656;2023-02-28T15:14:30;11;11;
31163;PMS5003;17796;49.296;-117.656;2023-02-28T15:29:44;17;14;
31163;PMS5003;17796;49.296;-117.656;2023-02-28T15:44:49;13;10;
31163;PMS5003;17796;49.296;-117.656;2023-02-28T15:59:55;14;11;
31163;PMS5003;17796;49.296;-117.656;2023-02-28T16:15:02;9;7;
31163;PMS5003;17796;49.296;-117.656;2023-02-28T16:30:19;10;6;
31163;PMS5003;17796;49.296;-117.656;2023-02-28T16:45:25;11;11;
31163;PMS5003;17796;49.296;-117.656;2023-02-28T17:00:31;13;9;
31163;PMS5003;17796;49.296;-117.656;2023-02-28T17:15:36;14;11;
31163;PMS5003;17796;49.296;-117.656;2023-02-28T17:30:40;18;15;
31163;PMS5003;17796;49.296;-117.656;2023-02-28T17:45:44;17;15;
31163;PMS5003;17796;49.296;-117.656;2023-02-28T18:00:47;25;19;
31163;PMS5003;17796;49.296;-117.656;2023-02-28T18:15:51;22;17;
31163;PMS5003;17796;49.296;-117.656;2023-02-28T18:30:55;14;14;
31163;PMS5003;17796;49.296;-117.656;2023-02-28T18:46:03;19;13;
31163;PMS5003;17796;49.296;-117.656;2023-02-28T19:01:14;18;11;
31163;PMS5003;17796;49.296;-117.656;2023-02-28T19:16:19;23;20;
31163;PMS5003;17796;49.296;-117.656;2023-02-28T19:31:24;22;15;
31163;PMS5003;17796;49.296;-117.656;2023-02-28T19:46:28;19;17;
31163;PMS5003;17796;49.296;-117.656;2023-02-28T20:01:32;22;19;
31163;PMS5003;17796;49.296;-117.656;2023-02-28T20:16:35;14;9;
31163;PMS5003;17796;49.296;-117.656;2023-02-28T20:31:39;6;6;
31163;PMS5003;17796;49.296;-117.656;2023-02-28T20:46:43;14;10;
31163;PMS5003;17796;49.296;-117.656;2023-02-28T21:01:46;14;10;
31163;PMS5003;17796;49.296;-117.656;2023-02-28T21:16:50;10;10;
31163;PMS5003;17796;49.296;-117.656;2023-02-28T21:31:54;7;7;
31163;PMS5003;17796;49.296;-117.656;2023-02-28T21:46:58;17;14;
31163;PMS5003;17796;49.296;-117.656;2023-02-28T22:02:02;10;7;
31163;PMS5003;17796;49.296;-117.656;2023-02-28T22:17:05;7;7;
31163;PMS5003;17796;49.296;-117.656;2023-02-28T22:32:09;6;6;
31163;PMS5003;17796;49.296;-117.656;2023-02-28T22:47:12;6;6;
31163;PMS5003;17796;49.296;-117.656;2023-02-28T23:02:16;9;7;
31163;PMS5003;17796;49.296;-117.656;2023-02-28T23:17:20;10;9;
31163;PMS5003;17796;49.296;-117.656;2023-02-28T23:32:24;13;13;
31163;PMS5003;17796;49.296;-117.656;2023-02-28T23:47:27;15;13;
